createdAt,value
2016-03-31T00:00:00.442Z,10.64
2016-03-31T00:01:00.429Z,10.75
2016-03-31T00:02:03.447Z,10.74
2016-03-31T00:03:00.434Z,10.74
2016-03-31T00:04:00.406Z,10.68
2016-03-31T00:05:00.440Z,10.75
2016-03-31T00:06:00.442Z,10.75
2016-03-31T00:07:00.413Z,10.76
2016-03-31T00:08:00.416Z,10.72
2016-03-31T00:09:00.419Z,10.68
2016-03-31T00:10:00.453Z,10.71
2016-03-31T00:11:00.424Z,10.72
2016-03-31T00:12:00.427Z,10.69
2016-03-31T00:13:00.430Z,10.71
2016-03-31T00:14:00.448Z,10.78
2016-03-31T00:15:00.483Z,10.68
2016-03-31T00:16:00.438Z,10.59
2016-03-31T00:17:00.455Z,10.59
2016-03-31T00:18:00.443Z,10.61
2016-03-31T00:19:00.428Z,10.57
2016-03-31T00:20:04.222Z,10.59
2016-03-31T00:21:00.444Z,10.61
2016-03-31T00:22:00.446Z,10.57
2016-03-31T00:23:00.448Z,10.61
2016-03-31T00:24:00.452Z,10.59
2016-03-31T00:25:00.438Z,10.59
2016-03-31T00:26:00.441Z,10.57
2016-03-31T00:27:00.475Z,10.56
2016-03-31T00:28:00.446Z,10.6
2016-03-31T00:29:00.465Z,10.6
2016-03-31T00:30:00.437Z,10.57
2016-03-31T00:31:00.147Z,10.6
2016-03-31T00:32:00.494Z,10.59
2016-03-31T00:33:00.437Z,10.57
2016-03-31T00:34:00.454Z,10.6
2016-03-31T00:35:00.473Z,10.61
2016-03-31T00:36:00.460Z,10.61
2016-03-31T00:37:00.448Z,10.61
2016-03-31T00:38:00.465Z,10.6
2016-03-31T00:39:00.467Z,10.6
2016-03-31T00:40:00.456Z,10.54
2016-03-31T00:41:00.458Z,10.61
2016-03-31T00:42:00.461Z,10.61
2016-03-31T00:43:00.464Z,10.69
2016-03-31T00:44:00.481Z,10.64
2016-03-31T00:45:00.469Z,10.75
2016-03-31T00:46:00.456Z,10.71
2016-03-31T00:47:00.474Z,10.72
2016-03-31T00:48:00.461Z,10.67
2016-03-31T00:49:00.480Z,10.74
2016-03-31T00:50:00.513Z,10.76
2016-03-31T00:51:00.470Z,10.75
2016-03-31T00:52:00.472Z,10.84
2016-03-31T00:53:00.475Z,10.81
2016-03-31T00:54:00.493Z,10.78
2016-03-31T00:55:00.465Z,10.92
2016-03-31T00:56:00.467Z,10.82
2016-03-31T00:57:00.501Z,10.93
2016-03-31T00:58:00.504Z,10.97
2016-03-31T00:59:00.476Z,10.96
2016-03-31T01:00:00.478Z,10.86
2016-03-31T01:01:00.481Z,10.93
2016-03-31T01:02:00.530Z,10.92
2016-03-31T01:03:00.486Z,10.96
2016-03-31T01:04:00.504Z,10.87
2016-03-31T01:05:00.492Z,10.89
2016-03-31T01:06:00.509Z,10.94
2016-03-31T01:07:00.497Z,10.89
2016-03-31T01:08:00.500Z,10.94
2016-03-31T01:09:00.502Z,10.96
2016-03-31T01:10:00.506Z,10.93
2016-03-31T01:11:00.476Z,10.9
2016-03-31T01:12:00.495Z,10.93
2016-03-31T01:13:00.528Z,10.84
2016-03-31T01:14:00.500Z,10.87
2016-03-31T01:15:00.519Z,10.82
2016-03-31T01:16:00.521Z,10.84
2016-03-31T01:17:00.508Z,10.78
2016-03-31T01:18:00.527Z,10.82
2016-03-31T01:19:00.529Z,10.75
2016-03-31T01:20:00.516Z,10.74
2016-03-31T01:21:00.534Z,10.76
2016-03-31T01:22:00.708Z,10.71
2016-03-31T01:23:00.540Z,10.69
2016-03-31T01:24:00.527Z,10.71
2016-03-31T01:25:00.529Z,10.69
2016-03-31T01:26:00.516Z,10.59
2016-03-31T01:27:00.534Z,10.57
2016-03-31T01:28:00.521Z,10.61
2016-03-31T01:29:00.540Z,10.57
2016-03-31T01:30:00.558Z,10.57
2016-03-31T01:31:00.529Z,10.59
2016-03-31T01:32:00.517Z,10.44
2016-03-31T01:33:00.535Z,10.49
2016-03-31T01:34:00.584Z,10.46
2016-03-31T01:35:00.525Z,10.4
2016-03-31T01:36:00.559Z,10.38
2016-03-31T01:37:00.530Z,10.38
2016-03-31T01:38:00.548Z,10.3
2016-03-31T01:39:00.552Z,10.35
2016-03-31T01:40:00.539Z,10.33
2016-03-31T01:41:00.541Z,10.31
2016-03-31T01:42:00.529Z,10.23
2016-03-31T01:43:00.562Z,10.26
2016-03-31T01:44:00.565Z,10.3
2016-03-31T01:45:00.567Z,10.26
2016-03-31T01:46:00.555Z,10.25
2016-03-31T01:47:00.526Z,10.22
2016-03-31T01:48:00.560Z,10.25
2016-03-31T01:49:00.563Z,10.26
2016-03-31T01:50:00.581Z,10.17
2016-03-31T01:51:00.552Z,10.19
2016-03-31T01:52:00.571Z,10.2
2016-03-31T01:53:00.558Z,10.1
2016-03-31T01:54:00.560Z,10.15
2016-03-31T01:55:00.563Z,10.13
2016-03-31T01:56:00.550Z,10.13
2016-03-31T01:57:00.615Z,10.17
2016-03-31T01:58:00.587Z,10.12
2016-03-31T01:59:00.574Z,10.2
2016-03-31T02:00:00.593Z,10.16
2016-03-31T02:01:00.579Z,10.02
2016-03-31T02:02:00.582Z,10.13
2016-03-31T02:03:00.585Z,10.19
2016-03-31T02:04:00.571Z,10.23
2016-03-31T02:05:00.574Z,10.09
2016-03-31T02:06:00.562Z,10.15
2016-03-31T02:07:00.579Z,10.15
2016-03-31T02:08:00.560Z,10.13
2016-03-31T02:09:00.594Z,10.07
2016-03-31T02:10:00.596Z,10.15
2016-03-31T02:11:00.600Z,10.12
2016-03-31T02:12:00.571Z,10.2
2016-03-31T02:13:00.590Z,10.07
2016-03-31T02:14:00.592Z,10.09
2016-03-31T02:15:00.595Z,10.09
2016-03-31T02:16:00.581Z,10.04
2016-03-31T02:17:00.584Z,10.05
2016-03-31T02:18:00.574Z,10.05
2016-03-31T02:19:00.593Z,10.1
2016-03-31T02:20:00.596Z,10.04
2016-03-31T02:21:00.598Z,10.04
2016-03-31T02:22:00.882Z,10.13
2016-03-31T02:23:00.587Z,10.01
2016-03-31T02:24:00.590Z,9.98
2016-03-31T02:25:00.577Z,10.09
2016-03-31T02:26:00.580Z,10.12
2016-03-31T02:27:00.583Z,10.09
2016-03-31T02:28:00.647Z,10.2
2016-03-31T02:29:00.588Z,10.16
2016-03-31T02:30:00.591Z,10.1
2016-03-31T02:31:00.608Z,10.1
2016-03-31T02:32:00.596Z,10.22
2016-03-31T02:33:00.583Z,10.15
2016-03-31T02:34:00.602Z,10.09
2016-03-31T02:35:00.604Z,10.12
2016-03-31T02:36:00.622Z,10.13
2016-03-31T02:37:00.610Z,10.19
2016-03-31T02:38:00.580Z,10.2
2016-03-31T02:39:00.599Z,10.2
2016-03-31T02:40:00.602Z,10.17
2016-03-31T02:41:00.588Z,10.34
2016-03-31T02:42:00.608Z,10.35
2016-03-31T02:43:00.610Z,10.3
2016-03-31T02:44:00.629Z,10.33
2016-03-31T02:45:00.599Z,10.35
2016-03-31T02:46:00.635Z,10.41
2016-03-31T02:47:00.621Z,10.38
2016-03-31T02:48:00.623Z,10.38
2016-03-31T02:49:00.829Z,10.38
2016-03-31T02:50:00.660Z,10.37
2016-03-31T02:51:03.615Z,10.33
2016-03-31T02:52:00.619Z,10.28
2016-03-31T02:53:00.621Z,10.23
2016-03-31T02:54:00.624Z,10.26
2016-03-31T02:55:00.626Z,10.17
2016-03-31T02:56:00.942Z,10.17
2016-03-31T02:57:00.632Z,10.19
2016-03-31T02:58:00.650Z,10.07
2016-03-31T02:59:00.637Z,10.2
2016-03-31T03:00:00.625Z,10.1
2016-03-31T03:01:00.642Z,10.1
2016-03-31T03:02:00.646Z,10.07
2016-03-31T03:03:03.633Z,10.07
2016-03-31T03:04:00.667Z,10.09
2016-03-31T03:05:00.638Z,10.15
2016-03-31T03:06:00.641Z,9.98
2016-03-31T03:07:00.628Z,9.97
2016-03-31T03:08:00.620Z,9.99
2016-03-31T03:09:00.613Z,9.97
2016-03-31T03:10:00.630Z,9.92
2016-03-31T03:11:00.603Z,9.89
2016-03-31T03:12:00.621Z,9.86
2016-03-31T03:13:00.608Z,9.95
2016-03-31T03:14:00.627Z,9.89
2016-03-31T03:15:00.629Z,9.94
2016-03-31T03:16:00.647Z,9.86
2016-03-31T03:17:00.603Z,9.82
2016-03-31T03:18:00.622Z,9.82
2016-03-31T03:19:00.608Z,9.79
2016-03-31T03:20:00.610Z,9.87
2016-03-31T03:21:00.614Z,9.83
2016-03-31T03:22:00.616Z,9.83
2016-03-31T03:23:00.651Z,9.77
2016-03-31T03:24:00.607Z,9.77
2016-03-31T03:25:00.624Z,9.77
2016-03-31T03:26:00.627Z,9.72
2016-03-31T03:27:00.661Z,9.79
2016-03-31T03:28:00.618Z,9.8
2016-03-31T03:29:00.620Z,9.72
2016-03-31T03:30:00.622Z,9.68
2016-03-31T03:31:00.610Z,9.69
2016-03-31T03:32:00.628Z,9.68
2016-03-31T03:33:00.599Z,9.74
2016-03-31T03:34:00.634Z,9.68
2016-03-31T03:35:00.636Z,9.66
2016-03-31T03:36:00.638Z,9.61
2016-03-31T03:37:00.609Z,9.66
2016-03-31T03:38:00.628Z,9.59
2016-03-31T03:39:00.661Z,9.56
2016-03-31T03:40:00.633Z,9.55
2016-03-31T03:41:00.636Z,9.58
2016-03-31T03:42:00.623Z,9.55
2016-03-31T03:43:00.641Z,9.56
2016-03-31T03:44:00.614Z,9.51
2016-03-31T03:45:00.647Z,9.47
2016-03-31T03:46:00.618Z,9.44
2016-03-31T03:47:00.669Z,9.5
2016-03-31T03:48:00.624Z,9.46
2016-03-31T03:49:00.611Z,9.47
2016-03-31T03:50:00.676Z,9.44
2016-03-31T03:51:00.679Z,9.4
2016-03-31T03:52:00.635Z,9.36
2016-03-31T03:53:00.607Z,9.47
2016-03-31T03:54:00.625Z,9.36
2016-03-31T03:55:00.643Z,9.4
2016-03-31T03:56:00.614Z,9.36
2016-03-31T03:57:00.618Z,9.4
2016-03-31T03:58:00.651Z,9.32
2016-03-31T03:59:00.607Z,9.32
2016-03-31T04:00:00.625Z,9.32
2016-03-31T04:01:00.643Z,9.36
2016-03-31T04:02:00.630Z,9.37
2016-03-31T04:03:00.617Z,9.37
2016-03-31T04:04:00.604Z,9.31
2016-03-31T04:05:00.639Z,9.22
2016-03-31T04:06:00.656Z,9.25
2016-03-31T04:07:00.628Z,9.34
2016-03-31T04:08:00.615Z,9.19
2016-03-31T04:09:00.617Z,9.19
2016-03-31T04:10:00.667Z,9.19
2016-03-31T04:11:00.623Z,9.14
2016-03-31T04:12:00.644Z,9.18
2016-03-31T04:13:01.322Z,9.16
2016-03-31T04:14:00.665Z,9.18
2016-03-31T04:15:00.647Z,9.18
2016-03-31T04:16:00.680Z,9.14
2016-03-31T04:17:00.621Z,9.13
2016-03-31T04:18:00.623Z,9.08
2016-03-31T04:19:00.596Z,9.18
2016-03-31T04:20:00.613Z,9.16
2016-03-31T04:21:00.615Z,9.1
2016-03-31T04:22:00.603Z,9.08
2016-03-31T04:23:00.621Z,9.14
2016-03-31T04:24:00.593Z,9.11
2016-03-31T04:25:00.627Z,9.13
2016-03-31T04:26:00.651Z,9.16
2016-03-31T04:27:00.721Z,9.19
2016-03-31T04:28:00.746Z,9.16
2016-03-31T04:29:00.801Z,9.14
2016-03-31T04:30:00.860Z,9.06
2016-03-31T04:31:00.928Z,9.13
2016-03-31T04:32:00.888Z,9.08
2016-03-31T04:33:00.924Z,9.16
2016-03-31T04:34:00.946Z,9.08
2016-03-31T04:35:00.933Z,9.1
2016-03-31T04:36:00.973Z,9.21
2016-03-31T04:37:00.967Z,9.14
2016-03-31T04:38:00.944Z,9.16
2016-03-31T04:39:00.985Z,9.13
2016-03-31T04:40:00.977Z,9.23
2016-03-31T04:41:00.982Z,9.21
2016-03-31T04:42:00.847Z,9.14
2016-03-31T04:43:00.976Z,9.19
2016-03-31T04:44:00.981Z,9.14
2016-03-31T04:45:00.986Z,9.19
2016-03-31T04:46:00.990Z,9.11
2016-03-31T04:47:00.978Z,9.14
2016-03-31T04:48:00.998Z,9.13
2016-03-31T04:49:01.001Z,9.19
2016-03-31T04:50:01.021Z,9.08
2016-03-31T04:51:01.024Z,9.02
2016-03-31T04:52:00.980Z,9.1
2016-03-31T04:53:00.983Z,9.06
2016-03-31T04:54:01.002Z,8.97
2016-03-31T04:55:00.989Z,8.95
2016-03-31T04:56:01.008Z,9.06
2016-03-31T04:57:01.073Z,9.03
2016-03-31T04:58:01.029Z,8.97
2016-03-31T04:59:01.000Z,8.92
2016-03-31T05:00:00.988Z,9
2016-03-31T05:01:01.006Z,8.94
2016-03-31T05:02:01.008Z,8.89
2016-03-31T05:03:01.606Z,8.92
2016-03-31T05:04:01.014Z,8.89
2016-03-31T05:05:01.017Z,8.85
2016-03-31T05:06:00.989Z,8.94
2016-03-31T05:07:01.008Z,8.92
2016-03-31T05:08:01.010Z,8.87
2016-03-31T05:09:00.997Z,9
2016-03-31T05:10:01.015Z,8.94
2016-03-31T05:11:01.002Z,8.99
2016-03-31T05:12:00.989Z,8.94
2016-03-31T05:13:00.991Z,8.92
2016-03-31T05:14:01.010Z,8.89
2016-03-31T05:15:01.013Z,8.99
2016-03-31T05:16:00.984Z,8.91
2016-03-31T05:17:01.003Z,8.87
2016-03-31T05:18:01.005Z,8.94
2016-03-31T05:19:00.992Z,8.91
2016-03-31T05:20:00.996Z,8.91
2016-03-31T05:21:00.982Z,8.89
2016-03-31T05:22:01.001Z,8.88
2016-03-31T05:23:00.987Z,8.94
2016-03-31T05:24:00.990Z,8.88
2016-03-31T05:25:00.993Z,8.89
2016-03-31T05:26:00.996Z,8.97
2016-03-31T05:27:00.983Z,8.99
2016-03-31T05:28:01.001Z,8.91
2016-03-31T05:29:01.003Z,9.02
2016-03-31T05:30:00.991Z,8.95
2016-03-31T05:31:00.978Z,8.91
2016-03-31T05:32:00.995Z,8.99
2016-03-31T05:33:00.983Z,9.04
2016-03-31T05:34:00.986Z,9.11
2016-03-31T05:35:00.972Z,9.11
2016-03-31T05:36:00.975Z,9.11
2016-03-31T05:37:01.041Z,9.39
2016-03-31T05:38:00.996Z,9.41
2016-03-31T05:39:00.984Z,9.55
2016-03-31T05:40:01.002Z,9.58
2016-03-31T05:41:01.036Z,9.61
2016-03-31T05:42:01.054Z,9.65
2016-03-31T05:43:01.072Z,9.66
2016-03-31T05:44:01.043Z,9.59
2016-03-31T05:45:00.985Z,9.64
2016-03-31T05:46:01.002Z,9.62
2016-03-31T05:47:01.005Z,9.58
2016-03-31T05:48:00.992Z,9.59
2016-03-31T05:49:01.027Z,9.58
2016-03-31T05:50:00.998Z,9.55
2016-03-31T05:51:01.000Z,9.55
2016-03-31T05:52:01.004Z,9.58
2016-03-31T05:53:01.021Z,9.59
2016-03-31T05:54:01.009Z,9.55
2016-03-31T05:55:01.012Z,9.54
2016-03-31T05:56:00.998Z,9.55
2016-03-31T05:57:01.001Z,9.56
2016-03-31T05:58:01.019Z,9.54
2016-03-31T05:59:01.006Z,9.56
2016-03-31T06:00:01.008Z,9.56
2016-03-31T06:01:01.043Z,9.41
2016-03-31T06:02:01.014Z,9.46
2016-03-31T06:03:01.017Z,9.44
2016-03-31T06:04:01.020Z,9.36
2016-03-31T06:05:01.022Z,9.46
2016-03-31T06:06:01.025Z,9.36
2016-03-31T06:07:01.012Z,9.4
2016-03-31T06:08:01.014Z,9.41
2016-03-31T06:09:01.017Z,9.44
2016-03-31T06:10:01.005Z,9.43
2016-03-31T06:11:01.023Z,9.5
2016-03-31T06:12:01.025Z,9.44
2016-03-31T06:13:00.997Z,9.39
2016-03-31T06:14:01.016Z,9.4
2016-03-31T06:15:01.018Z,9.5
2016-03-31T06:16:01.021Z,9.48
2016-03-31T06:17:01.055Z,9.56
2016-03-31T06:18:01.041Z,9.5
2016-03-31T06:19:00.997Z,9.58
2016-03-31T06:20:00.890Z,9.55
2016-03-31T06:21:01.002Z,9.66
2016-03-31T06:22:01.037Z,9.48
2016-03-31T06:23:01.024Z,9.56
2016-03-31T06:24:01.010Z,9.55
2016-03-31T06:25:01.013Z,9.55
2016-03-31T06:26:01.016Z,9.5
2016-03-31T06:27:01.019Z,9.5
2016-03-31T06:28:01.006Z,9.58
2016-03-31T06:29:01.024Z,9.5
2016-03-31T06:30:01.012Z,9.64
2016-03-31T06:31:01.014Z,9.59
2016-03-31T06:32:01.017Z,9.68
2016-03-31T06:33:01.034Z,9.69
2016-03-31T06:34:01.007Z,9.76
2016-03-31T06:35:01.025Z,9.79
2016-03-31T06:36:01.011Z,9.87
2016-03-31T06:37:01.015Z,9.91
2016-03-31T06:38:01.033Z,9.98
2016-03-31T06:39:01.051Z,9.99
2016-03-31T06:40:01.023Z,10.01
2016-03-31T06:41:01.025Z,10.04
2016-03-31T06:42:01.028Z,10.02
2016-03-31T06:43:01.046Z,10.05
2016-03-31T06:44:01.033Z,10.04
2016-03-31T06:45:01.052Z,10.16
2016-03-31T06:46:01.023Z,10.12
2016-03-31T06:47:01.058Z,10.1
2016-03-31T06:48:01.060Z,10.26
2016-03-31T06:49:01.031Z,10.53
2016-03-31T06:50:01.050Z,10.96
2016-03-31T06:51:01.037Z,11.6
2016-03-31T06:52:01.054Z,12.32
2016-03-31T06:53:01.043Z,12.72
2016-03-31T06:54:01.045Z,13.2
2016-03-31T06:55:01.063Z,13.44
2016-03-31T06:56:01.051Z,13.79
2016-03-31T06:57:01.068Z,14.18
2016-03-31T06:58:01.071Z,14.41
2016-03-31T06:59:01.058Z,14.66
2016-03-31T07:00:01.076Z,14.94
2016-03-31T07:01:01.079Z,15.07
2016-03-31T07:02:01.081Z,15.21
2016-03-31T07:03:01.101Z,15.24
2016-03-31T07:04:01.087Z,15.27
2016-03-31T07:05:01.089Z,14.99
2016-03-31T07:06:01.093Z,14.65
2016-03-31T07:07:01.095Z,14.44
2016-03-31T07:08:01.166Z,14.14
2016-03-31T07:09:01.136Z,13.95
2016-03-31T07:10:01.108Z,13.68
2016-03-31T07:11:01.111Z,13.42
2016-03-31T07:12:01.144Z,13.44
2016-03-31T07:13:01.163Z,13.38
2016-03-31T07:14:01.135Z,13.31
2016-03-31T07:15:01.152Z,13.22
2016-03-31T07:16:01.172Z,13.03
2016-03-31T07:17:01.174Z,13.01
2016-03-31T07:18:01.176Z,13.01
2016-03-31T07:19:01.180Z,12.94
2016-03-31T07:20:01.182Z,12.78
2016-03-31T07:21:01.168Z,12.79
2016-03-31T07:22:01.203Z,13.04
2016-03-31T07:23:01.191Z,13.46
2016-03-31T07:24:01.224Z,13.77
2016-03-31T07:25:01.211Z,14.1
2016-03-31T07:26:01.198Z,14.36
2016-03-31T07:27:01.232Z,14.58
2016-03-31T07:28:01.234Z,14.77
2016-03-31T07:29:01.237Z,15
2016-03-31T07:30:01.225Z,15.28
2016-03-31T07:31:01.258Z,15.49
2016-03-31T07:32:01.245Z,15.73
2016-03-31T07:33:01.248Z,16.01
2016-03-31T07:34:01.251Z,16.31
2016-03-31T07:35:01.284Z,16.57
2016-03-31T07:36:01.272Z,16.68
2016-03-31T07:37:01.290Z,16.9
2016-03-31T07:38:01.308Z,17.24
2016-03-31T07:39:01.311Z,17.38
2016-03-31T07:40:01.298Z,17.36
2016-03-31T07:41:01.300Z,17.56
2016-03-31T07:42:01.303Z,17.64
2016-03-31T07:43:01.181Z,17.68
2016-03-31T07:44:01.341Z,17.39
2016-03-31T07:45:01.374Z,16.99
2016-03-31T07:46:01.330Z,16.75
2016-03-31T07:47:01.379Z,16.83
2016-03-31T07:48:01.367Z,17.02
2016-03-31T07:49:01.385Z,17.31
2016-03-31T07:50:01.388Z,17.52
2016-03-31T07:51:01.391Z,17.78
2016-03-31T07:52:01.409Z,18.07
2016-03-31T07:53:01.630Z,18.1
2016-03-31T07:54:01.429Z,18.22
2016-03-31T07:55:01.432Z,18.33
2016-03-31T07:56:01.420Z,18.16
2016-03-31T07:57:01.453Z,17.78
2016-03-31T07:58:01.456Z,17.31
2016-03-31T07:59:01.474Z,16.93
2016-03-31T08:00:01.493Z,16.69
2016-03-31T08:01:01.495Z,16.66
2016-03-31T08:02:01.482Z,16.74
2016-03-31T08:03:01.484Z,16.76
2016-03-31T08:04:01.550Z,16.94
2016-03-31T08:05:01.522Z,17.04
2016-03-31T08:06:01.525Z,17.39
2016-03-31T08:07:01.543Z,17.54
2016-03-31T08:08:01.545Z,17.82
2016-03-31T08:09:01.548Z,17.92
2016-03-31T08:10:01.567Z,18.15
2016-03-31T08:11:01.554Z,18.31
2016-03-31T08:12:01.588Z,18.49
2016-03-31T08:13:01.591Z,18.4
2016-03-31T08:14:01.608Z,18.7
2016-03-31T08:15:01.580Z,18.7
2016-03-31T08:16:01.613Z,18.74
2016-03-31T08:17:01.617Z,18.83
2016-03-31T08:18:01.635Z,18.71
2016-03-31T08:19:01.622Z,18.34
2016-03-31T08:20:01.655Z,18.08
2016-03-31T08:21:01.643Z,18.03
2016-03-31T08:22:01.677Z,17.98
2016-03-31T08:23:01.663Z,18
2016-03-31T08:24:01.666Z,18.04
2016-03-31T08:25:01.668Z,18.18
2016-03-31T08:26:01.703Z,18.19
2016-03-31T08:27:01.690Z,18.13
2016-03-31T08:28:01.723Z,17.78
2016-03-31T08:29:01.727Z,17.38
2016-03-31T08:30:01.729Z,16.99
2016-03-31T08:31:01.748Z,16.51
2016-03-31T08:32:01.766Z,15.9
2016-03-31T08:33:01.753Z,15.43
2016-03-31T08:34:01.756Z,15.03
2016-03-31T08:35:01.790Z,14.68
2016-03-31T08:36:01.792Z,14.51
2016-03-31T08:37:01.811Z,14.32
2016-03-31T08:38:01.814Z,14.14
2016-03-31T08:39:01.816Z,14.05
2016-03-31T08:40:01.835Z,13.9
2016-03-31T08:41:01.869Z,13.81
2016-03-31T08:42:01.837Z,13.77
2016-03-31T08:43:01.856Z,13.71
2016-03-31T08:44:01.859Z,13.71
2016-03-31T08:45:01.892Z,13.74
2016-03-31T08:46:01.880Z,13.72
2016-03-31T08:47:01.883Z,13.74
2016-03-31T08:48:01.885Z,13.79
2016-03-31T08:49:01.888Z,13.85
2016-03-31T08:50:01.906Z,13.83
2016-03-31T08:51:01.908Z,13.93
2016-03-31T08:52:01.926Z,13.93
2016-03-31T08:53:01.898Z,13.92
2016-03-31T08:54:01.932Z,13.92
2016-03-31T08:55:01.919Z,13.89
2016-03-31T08:56:01.937Z,13.96
2016-03-31T08:57:01.956Z,13.96
2016-03-31T08:58:01.927Z,13.93
2016-03-31T08:59:01.946Z,13.9
2016-03-31T09:00:01.948Z,13.96
2016-03-31T09:01:01.951Z,14
2016-03-31T09:02:01.954Z,14.05
2016-03-31T09:03:01.973Z,14.14
2016-03-31T09:04:02.006Z,14.15
2016-03-31T09:05:01.977Z,14.15
2016-03-31T09:06:01.965Z,14.33
2016-03-31T09:07:01.998Z,14.35
2016-03-31T09:08:02.000Z,14.37
2016-03-31T09:09:01.988Z,14.32
2016-03-31T09:10:01.991Z,14.48
2016-03-31T09:11:01.994Z,14.53
2016-03-31T09:12:01.996Z,14.51
2016-03-31T09:13:02.014Z,14.66
2016-03-31T09:14:02.033Z,14.79
2016-03-31T09:15:02.019Z,14.84
2016-03-31T09:16:02.007Z,14.89
2016-03-31T09:17:02.010Z,14.97
2016-03-31T09:18:02.216Z,15.09
2016-03-31T09:19:02.047Z,15.02
2016-03-31T09:20:02.033Z,15.19
2016-03-31T09:21:02.036Z,15.22
2016-03-31T09:22:02.039Z,15.24
2016-03-31T09:23:02.072Z,15.15
2016-03-31T09:24:02.044Z,15.19
2016-03-31T09:25:02.077Z,15.22
2016-03-31T09:26:02.081Z,15.11
2016-03-31T09:27:02.083Z,15.18
2016-03-31T09:28:02.086Z,15.1
2016-03-31T09:29:02.089Z,15.21
2016-03-31T09:30:02.091Z,15.21
2016-03-31T09:31:02.094Z,15.36
2016-03-31T09:32:02.112Z,15.37
2016-03-31T09:33:01.959Z,15.47
2016-03-31T09:34:02.102Z,15.52
2016-03-31T09:35:01.965Z,15.55
2016-03-31T09:36:02.123Z,15.54
2016-03-31T09:37:02.110Z,15.58
2016-03-31T09:38:02.145Z,15.61
2016-03-31T09:39:02.147Z,15.68
2016-03-31T09:40:02.150Z,15.7
2016-03-31T09:41:02.184Z,15.7
2016-03-31T09:42:02.156Z,15.8
2016-03-31T09:43:02.142Z,15.84
2016-03-31T09:44:02.161Z,15.83
2016-03-31T09:45:02.164Z,15.98
2016-03-31T09:46:02.182Z,16.04
2016-03-31T09:47:02.169Z,16.12
2016-03-31T09:48:02.296Z,16.08
2016-03-31T09:49:02.174Z,16.12
2016-03-31T09:50:02.191Z,16.2
2016-03-31T09:51:02.194Z,16.15
2016-03-31T09:52:02.197Z,16.28
2016-03-31T09:53:02.216Z,16.2
2016-03-31T09:54:02.219Z,16.24
2016-03-31T09:55:02.238Z,16.28
2016-03-31T09:56:02.240Z,16.32
2016-03-31T09:57:02.227Z,16.43
2016-03-31T09:58:02.246Z,16.46
2016-03-31T09:59:02.232Z,16.58
2016-03-31T10:00:02.251Z,16.53
2016-03-31T10:01:02.253Z,16.68
2016-03-31T10:02:02.240Z,16.87
2016-03-31T10:03:02.149Z,16.87
2016-03-31T10:04:02.262Z,16.9
2016-03-31T10:05:02.265Z,16.96
2016-03-31T10:06:02.282Z,16.99
2016-03-31T10:07:02.284Z,17.05
2016-03-31T10:08:02.318Z,17.09
2016-03-31T10:09:02.306Z,17.14
2016-03-31T10:10:02.309Z,17.2
2016-03-31T10:11:02.296Z,17.33
2016-03-31T10:12:02.329Z,17.36
2016-03-31T10:13:02.331Z,17.48
2016-03-31T10:14:02.350Z,17.57
2016-03-31T10:15:02.337Z,17.63
2016-03-31T10:16:02.356Z,17.71
2016-03-31T10:17:02.343Z,17.86
2016-03-31T10:18:02.424Z,17.9
2016-03-31T10:19:02.364Z,17.95
2016-03-31T10:20:02.351Z,17.97
2016-03-31T10:21:02.369Z,17.94
2016-03-31T10:22:02.389Z,18.07
2016-03-31T10:23:02.391Z,18.07
2016-03-31T10:24:02.409Z,18.11
2016-03-31T10:25:02.396Z,18.16
2016-03-31T10:26:02.446Z,18.13
2016-03-31T10:27:02.402Z,18.19
2016-03-31T10:28:02.404Z,18.22
2016-03-31T10:29:02.407Z,18.28
2016-03-31T10:30:02.440Z,18.35
2016-03-31T10:31:02.459Z,18.33
2016-03-31T10:32:02.430Z,18.28
2016-03-31T10:33:02.480Z,18.35
2016-03-31T10:34:02.451Z,18.38
2016-03-31T10:35:02.485Z,18.4
2016-03-31T10:36:02.472Z,18.59
2016-03-31T10:37:02.318Z,18.62
2016-03-31T10:38:02.493Z,18.68
2016-03-31T10:39:02.481Z,18.74
2016-03-31T10:40:02.484Z,18.8
2016-03-31T10:41:02.501Z,18.86
2016-03-31T10:42:02.520Z,18.92
2016-03-31T10:43:02.506Z,19.07
2016-03-31T10:44:02.573Z,19.04
2016-03-31T10:45:02.528Z,19.09
2016-03-31T10:46:02.656Z,19.14
2016-03-31T10:47:02.548Z,19.12
2016-03-31T10:48:02.567Z,19.08
2016-03-31T10:49:02.586Z,19.22
2016-03-31T10:50:02.572Z,19.19
2016-03-31T10:51:02.591Z,19.33
2016-03-31T10:52:02.594Z,19.33
2016-03-31T10:53:02.581Z,19.36
2016-03-31T10:54:02.599Z,19.34
2016-03-31T10:55:02.617Z,19.49
2016-03-31T10:56:02.619Z,19.54
2016-03-31T10:57:02.638Z,19.45
2016-03-31T10:58:02.641Z,19.59
2016-03-31T10:59:02.644Z,19.49
2016-03-31T11:00:02.663Z,19.55
2016-03-31T11:01:02.649Z,19.56
2016-03-31T11:02:02.652Z,19.49
2016-03-31T11:03:02.671Z,19.47
2016-03-31T11:04:02.673Z,19.51
2016-03-31T11:05:02.691Z,19.49
2016-03-31T11:06:02.694Z,19.59
2016-03-31T11:07:02.727Z,19.55
2016-03-31T11:08:02.699Z,19.58
2016-03-31T11:09:02.717Z,19.47
2016-03-31T11:10:02.720Z,19.51
2016-03-31T11:11:02.723Z,19.51
2016-03-31T11:12:02.726Z,19.52
2016-03-31T11:13:02.759Z,19.54
2016-03-31T11:14:02.762Z,19.51
2016-03-31T11:15:02.781Z,19.52
2016-03-31T11:16:02.768Z,19.62
2016-03-31T11:17:02.817Z,19.66
2016-03-31T11:18:02.789Z,19.66
2016-03-31T11:19:02.776Z,19.7
2016-03-31T11:20:02.809Z,19.69
2016-03-31T11:21:02.812Z,19.79
2016-03-31T11:22:02.815Z,19.79
2016-03-31T11:23:02.849Z,19.89
2016-03-31T11:24:02.820Z,20.02
2016-03-31T11:25:02.823Z,20.03
2016-03-31T11:26:02.842Z,20.19
2016-03-31T11:27:02.860Z,20.24
2016-03-31T11:28:02.863Z,20.21
2016-03-31T11:29:02.865Z,20.24
2016-03-31T11:30:02.883Z,20.26
2016-03-31T11:31:02.885Z,20.29
2016-03-31T11:32:02.748Z,20.39
2016-03-31T11:33:02.907Z,20.37
2016-03-31T11:34:02.924Z,20.4
2016-03-31T11:35:02.928Z,20.47
2016-03-31T11:36:02.930Z,20.43
2016-03-31T11:37:02.932Z,20.39
2016-03-31T11:38:02.951Z,20.48
2016-03-31T11:39:02.970Z,20.41
2016-03-31T11:40:02.988Z,20.44
2016-03-31T11:41:02.976Z,20.48
2016-03-31T11:42:02.978Z,20.51
2016-03-31T11:43:02.996Z,20.58
2016-03-31T11:44:02.998Z,20.62
2016-03-31T11:45:03.001Z,20.77
2016-03-31T11:46:03.036Z,20.9
2016-03-31T11:47:03.023Z,20.92
2016-03-31T11:48:03.025Z,20.97
2016-03-31T11:49:03.044Z,21.12
2016-03-31T11:50:03.061Z,21.14
2016-03-31T11:51:03.064Z,21.17
2016-03-31T11:52:03.083Z,21.21
2016-03-31T11:53:03.086Z,21.25
2016-03-31T11:54:03.089Z,21.37
2016-03-31T11:55:03.122Z,21.4
2016-03-31T11:56:03.109Z,21.35
2016-03-31T11:57:03.127Z,21.37
2016-03-31T11:58:03.114Z,21.52
2016-03-31T11:59:03.133Z,21.52
2016-03-31T12:00:03.135Z,21.51
2016-03-31T12:01:03.139Z,21.55
2016-03-31T12:02:03.188Z,21.6
2016-03-31T12:03:03.160Z,21.62
2016-03-31T12:04:03.178Z,21.64
2016-03-31T12:05:03.197Z,21.67
2016-03-31T12:06:03.183Z,21.57
2016-03-31T12:07:03.202Z,21.42
2016-03-31T12:08:03.220Z,21.39
2016-03-31T12:09:03.207Z,21.37
2016-03-31T12:10:03.225Z,21.25
2016-03-31T12:11:03.228Z,21.2
2016-03-31T12:12:03.262Z,21.17
2016-03-31T12:13:03.265Z,21.11
2016-03-31T12:14:03.268Z,21.17
2016-03-31T12:15:03.270Z,21.18
2016-03-31T12:16:03.273Z,21.2
2016-03-31T12:17:03.306Z,21.27
2016-03-31T12:18:03.325Z,21.2
2016-03-31T12:19:03.311Z,21.18
2016-03-31T12:20:03.315Z,21.15
2016-03-31T12:21:03.333Z,21.22
2016-03-31T12:22:03.320Z,21.25
2016-03-31T12:23:03.339Z,21.25
2016-03-31T12:24:03.357Z,21.21
2016-03-31T12:25:03.359Z,21.24
2016-03-31T12:26:03.378Z,21.29
2016-03-31T12:27:03.396Z,21.24
2016-03-31T12:28:03.414Z,21.18
2016-03-31T12:29:03.401Z,21.14
2016-03-31T12:30:03.419Z,21.21
2016-03-31T12:31:03.422Z,21.27
2016-03-31T12:32:03.410Z,21.27
2016-03-31T12:33:03.443Z,21.35
2016-03-31T12:34:03.430Z,21.4
2016-03-31T12:35:03.432Z,21.4
2016-03-31T12:36:03.466Z,21.22
2016-03-31T12:37:03.454Z,21.11
2016-03-31T12:38:03.472Z,21.09
2016-03-31T12:39:03.475Z,20.97
2016-03-31T12:40:03.477Z,21.02
2016-03-31T12:41:03.512Z,21.11
2016-03-31T12:42:03.514Z,21.12
2016-03-31T12:43:03.532Z,21.22
2016-03-31T12:44:03.535Z,21.42
2016-03-31T12:45:03.538Z,21.39
2016-03-31T12:46:03.587Z,21.43
2016-03-31T12:47:03.543Z,21.51
2016-03-31T12:48:03.577Z,21.54
2016-03-31T12:49:03.580Z,21.45
2016-03-31T12:50:03.567Z,21.35
2016-03-31T12:51:03.601Z,21.42
2016-03-31T12:52:03.604Z,21.35
2016-03-31T12:53:03.606Z,21.37
2016-03-31T12:54:03.625Z,21.4
2016-03-31T12:55:03.642Z,21.51
2016-03-31T12:56:03.645Z,21.45
2016-03-31T12:57:03.664Z,21.42
2016-03-31T12:58:03.651Z,21.24
2016-03-31T12:59:03.669Z,21.17
2016-03-31T13:00:03.672Z,21.17
2016-03-31T13:01:03.705Z,21.14
2016-03-31T13:02:03.709Z,21.18